Time;durP1;ratioP1;P1;durP2;ratioP2;P2;SDS_P1;SDS_P2;PMS_P1;PMS_P2;Temp;Humidity;BMP_temperature;BMP_pressure;BME280_temperature;BME280_humidity;BME280_pressure;Samples;Min_cycle;Max_cycle;Signal;HPM_P1;HPM_P2
2022/11/12 00:00:20;;;;;;;25.42;15.13;;;;;;;;;;5071604;28;20037;-53
2022/11/12 00:02:45;;;;;;;25.90;15.48;;;7.80;99.90;;;;;;5075057;28;20407;-54
2022/11/12 00:05:11;;;;;;;26.08;16.10;;;7.70;99.90;;;;;;5070792;28;20119;-54
2022/11/12 00:07:37;;;;;;;27.77;16.92;;;;;;;;;;5073209;28;20517;-54
2022/11/12 00:10:04;;;;;;;27.67;15.40;;;8.20;99.90;;;;;;5065335;28;20093;-53
2022/11/12 00:12:30;;;;;;;25.73;15.48;;;;;;;;;;5072458;28;20028;-53
2022/11/12 00:14:55;;;;;;;25.50;14.38;;;7.50;99.90;;;;;;5072270;28;20033;-53
2022/11/12 00:17:21;;;;;;;26.52;15.43;;;;;;;;;;5077028;28;20402;-52
2022/11/12 00:19:48;;;;;;;27.15;15.25;;;;;;;;;;5054264;28;20653;-51
2022/11/12 00:22:14;;;;;;;25.05;15.32;;;;;;;;;;5072002;28;20036;-53
2022/11/12 00:24:40;;;;;;;28.88;15.80;;;;;;;;;;5071617;28;20119;-54
2022/11/12 00:27:06;;;;;;;30.05;16.50;;;;;;;;;;5071751;28;20120;-51
2022/11/12 00:29:31;;;;;;;28.17;14.93;;;7.30;99.90;;;;;;5071784;28;20090;-52
2022/11/12 00:31:57;;;;;;;26.77;16.42;;;7.30;99.90;;;;;;5071987;28;20490;-54
2022/11/12 00:34:23;;;;;;;28.13;16.88;;;;;;;;;;5070720;28;20119;-54
2022/11/12 00:36:48;;;;;;;25.75;15.75;;;7.30;99.90;;;;;;5053246;28;20083;-53
2022/11/12 00:39:14;;;;;;;33.00;18.88;;;;;;;;;;5052230;28;20462;-54
2022/11/12 00:41:40;;;;;;;33.78;18.17;;;7.40;99.90;;;;;;5071794;28;20037;-55
2022/11/12 00:44:06;;;;;;;29.67;19.35;;;;;;;;;;5070722;28;20055;-54
2022/11/12 00:46:32;;;;;;;32.08;18.55;;;;;;;;;;5071624;28;20037;-53
2022/11/12 00:48:58;;;;;;;38.70;20.40;;;;;;;;;;5072312;28;20036;-53
2022/11/12 00:51:24;;;;;;;30.35;17.60;;;;;;;;;;5079495;28;20044;-54
2022/11/12 00:53:50;;;;;;;28.98;16.92;;;;;;;;;;5074253;28;20040;-53
2022/11/12 00:56:16;;;;;;;23.10;13.18;;;;;;;;;;5085807;22;20048;-55
2022/11/12 00:58:42;;;;;;;41.42;14.00;;;;;;;;;;5076330;28;20041;-57
2022/11/12 01:01:12;;;;;;;37.30;16.02;;;;;;;;;;5060406;28;20127;-57
2022/11/12 01:03:39;;;;;;;44.72;14.25;;;;;;;;;;5069403;28;20043;-55
2022/11/12 01:06:14;;;;;;;26.90;13.02;;;6.10;99.90;;;;;;5067921;28;20037;-57
2022/11/12 01:08:40;;;;;;;41.45;13.93;;;;;;;;;;5060917;28;20063;-56
2022/11/12 01:11:09;;;;;;;46.92;13.07;;;6.40;99.90;;;;;;5038882;28;20037;-60
2022/11/12 01:13:35;;;;;;;45.20;14.93;;;6.10;99.90;;;;;;5057601;28;20045;-59
2022/11/12 01:16:10;;;;;;;31.80;14.38;;;5.60;99.90;;;;;;5060638;28;20116;-56
2022/11/12 01:18:36;;;;;;;;;;;;;;;;;;5055701;28;20471;-58
2022/11/12 01:21:02;;;;;;;31.55;15.30;;;;;;;;;;5052266;28;19975;-58
2022/11/12 01:23:28;;;;;;;28.20;14.15;;;;;;;;;;5054663;28;20047;-59
2022/11/12 01:25:54;;;;;;;23.05;13.95;;;;;;;;;;5057820;28;20068;-56
2022/11/12 01:28:20;;;;;;;29.35;15.95;;;;;;;;;;5053530;28;20371;-57
2022/11/12 01:30:46;;;;;;;31.92;16.00;;;;;;;;;;5058257;28;20045;-58
2022/11/12 01:33:12;;;;;;;43.17;19.73;;;;;;;;;;5057280;28;20040;-57
2022/11/12 01:35:38;;;;;;;47.05;18.15;;;5.90;99.90;;;;;;5055347;28;20178;-59
2022/11/12 01:38:04;;;;;;;41.60;19.08;;;;;;;;;;5058038;28;20047;-59
2022/11/12 01:40:31;;;;;;;45.13;20.10;;;5.90;99.90;;;;;;5054093;28;20051;-56
2022/11/12 01:42:56;;;;;;;38.03;18.77;;;5.80;99.90;;;;;;5062538;28;20043;-56
2022/11/12 01:45:23;;;;;;;35.28;17.33;;;;;;;;;;5056959;28;20467;-59
2022/11/12 01:47:51;;;;;;;31.08;16.58;;;5.60;99.90;;;;;;5060912;28;20042;-56
2022/11/12 01:50:21;;;;;;;37.47;17.23;;;;;;;;;;5057378;28;20048;-59
2022/11/12 01:52:58;;;;;;;30.10;14.05;;;5.80;99.90;;;;;;5036319;28;20398;-56
2022/11/12 01:55:34;;;;;;;41.42;14.45;;;;;;;;;;5055129;28;20117;-56
2022/11/12 01:58:04;;;;;;;78.15;20.35;;;;;;;;;;5061982;28;20082;-59
2022/11/12 02:00:30;;;;;;;130.88;25.98;;;5.40;99.90;;;;;;5060868;28;20036;-57
2022/11/12 02:02:58;;;;;;;94.45;21.05;;;;;;;;;;5052621;28;20398;-57
2022/11/12 02:05:25;;;;;;;91.93;21.15;;;;;;;;;;5060300;28;20056;-59
2022/11/12 02:07:51;;;;;;;46.83;18.17;;;;;;;;;;5053927;28;20093;-56
2022/11/12 02:10:18;;;;;;;39.38;17.95;;;;;;;;;;5059440;28;20047;-56
2022/11/12 02:15:29;;;;;;;30.90;15.68;;;6.10;99.90;;;;;;5038174;28;20036;-58
2022/11/12 02:17:55;;;;;;;29.38;17.15;;;6.00;99.90;;;;;;5060019;28;20094;-56
2022/11/12 02:20:21;;;;;;;32.47;17.48;;;;;;;;;;5056309;28;20044;-60
2022/11/12 02:22:47;;;;;;;31.98;18.35;;;;;;;;;;5056262;28;20510;-60
2022/11/12 02:25:15;;;;;;;32.80;20.15;;;;;;;;;;5032414;28;20059;-59
2022/11/12 02:27:41;;;;;;;33.67;19.88;;;;;;;;;;5055685;28;20498;-59
2022/11/12 02:30:08;;;;;;;33.50;18.05;;;;;;;;;;5063203;28;20036;-59
2022/11/12 02:32:33;;;;;;;28.50;16.55;;;6.40;99.90;;;;;;5038213;28;20044;-59
2022/11/12 02:34:59;;;;;;;25.42;15.05;;;6.60;99.90;;;;;;5056150;28;20024;-59
2022/11/12 02:37:24;;;;;;;27.50;17.52;;;6.40;99.90;;;;;;5051691;28;20032;-57
2022/11/12 02:39:50;;;;;;;29.27;16.92;;;6.70;99.90;;;;;;5037721;28;20037;-58
2022/11/12 02:42:16;;;;;;;27.13;18.65;;;;;;;;;;5050752;28;20033;-57
2022/11/12 02:44:42;;;;;;;35.55;20.38;;;6.90;99.90;;;;;;5063499;28;20599;-59
2022/11/12 02:47:07;;;;;;;27.00;17.52;;;6.70;99.90;;;;;;5061648;28;20033;-59
2022/11/12 02:49:33;;;;;;;35.97;19.98;;;6.90;99.90;;;;;;5038194;28;20036;-58
2022/11/12 02:51:59;;;;;;;36.95;20.80;;;;;;;;;;5063306;28;20116;-59
2022/11/12 02:54:25;;;;;;;33.45;20.88;;;;;;;;;;5052926;28;20067;-56
2022/11/12 02:56:51;;;;;;;36.35;21.42;;;;;;;;;;5018850;28;1050463;-59
2022/11/12 02:59:17;;;;;;;36.88;20.77;;;7.20;99.90;;;;;;5051303;28;20640;-55
2022/11/12 03:01:42;;;;;;;27.75;18.75;;;7.10;99.90;;;;;;5058680;28;20048;-57
2022/11/12 03:04:08;;;;;;;31.20;19.85;;;7.20;99.90;;;;;;5064152;28;20055;-58
2022/11/12 03:06:34;;;;;;;30.40;19.45;;;;;;;;;;5064808;28;20032;-55
2022/11/12 03:09:00;;;;;;;30.10;19.40;;;;;;;;;;5075980;28;20040;-56
2022/11/12 03:11:26;;;;;;;32.65;19.48;;;7.30;99.90;;;;;;5063343;28;20033;-56
2022/11/12 03:13:52;;;;;;;33.20;21.33;;;;;;;;;;5063456;28;20043;-59
2022/11/12 03:16:17;;;;;;;28.70;18.95;;;7.40;99.90;;;;;;5043693;28;20124;-60
2022/11/12 03:18:43;;;;;;;29.23;20.33;;;7.40;99.90;;;;;;5061323;28;20120;-60
2022/11/12 03:21:09;;;;;;;31.15;18.65;;;7.40;99.90;;;;;;5057117;28;20052;-59
2022/11/12 03:23:35;;;;;;;25.35;17.48;;;;;;;;;;5061277;28;20040;-59
2022/11/12 03:26:04;;;;;;;26.63;19.13;;;;;;;;;;5068148;28;20449;-55
2022/11/12 03:28:30;;;;;;;25.95;17.85;;;;;;;;;;5069592;28;20440;-60
2022/11/12 03:30:57;;;;;;;29.52;17.88;;;7.40;99.90;;;;;;5061173;28;20491;-56
2022/11/12 03:33:23;;;;;;;28.08;19.52;;;;;;;;;;5058111;28;20044;-59
2022/11/12 03:35:49;;;;;;;23.98;17.25;;;7.50;99.90;;;;;;5061218;28;20411;-56
2022/11/12 03:38:15;;;;;;;24.42;16.92;;;7.60;99.90;;;;;;5056225;28;20036;-58
2022/11/12 03:40:40;;;;;;;23.08;16.65;;;7.50;99.90;;;;;;5059697;28;20517;-58
2022/11/12 03:43:06;;;;;;;28.85;18.45;;;;;;;;;;5055542;28;20427;-57
2022/11/12 03:45:33;;;;;;;26.48;18.08;;;;;;;;;;5044380;28;20441;-56
2022/11/12 03:47:58;;;;;;;29.05;19.95;;;7.60;99.90;;;;;;5066457;28;20055;-58
2022/11/12 03:50:27;;;;;;;29.73;18.75;;;7.60;99.90;;;;;;5064783;28;20025;-58
2022/11/12 03:52:56;;;;;;;35.47;21.17;;;8.10;99.90;;;;;;5059845;28;20137;-57
2022/11/12 03:55:24;;;;;;;36.72;21.25;;;7.60;99.90;;;;;;5055714;28;20403;-60
2022/11/12 03:57:51;;;;;;;32.35;20.25;;;7.50;99.90;;;;;;5058759;28;20037;-60
2022/11/12 04:00:18;;;;;;;31.33;22.60;;;7.50;99.90;;;;;;5055059;28;20033;-57
2022/11/12 04:02:44;;;;;;;35.78;21.00;;;7.60;99.90;;;;;;5059586;28;20490;-59
2022/11/12 04:10:59;;;;;;;33.10;21.02;;;7.60;99.90;;;;;;5054389;28;20040;-56
2022/11/12 04:13:28;;;;;;;34.78;20.55;;;;;;;;;;5053811;28;20041;-55
2022/11/12 04:26:21;;;;;;;53.08;25.48;;;7.80;99.90;;;;;;5064306;28;20505;-55
2022/11/12 04:26:55;;;;;;;44.00;23.25;;;7.80;99.90;;;;;;5068976;28;20086;-55
2022/11/12 04:32:05;;;;;;;88.23;34.63;;;7.80;99.90;;;;;;5067652;28;20490;-53
2022/11/12 04:34:31;;;;;;;86.30;32.92;;;7.80;99.90;;;;;;5069720;28;20332;-56
2022/11/12 04:36:56;;;;;;;83.57;34.05;;;7.70;99.90;;;;;;5072201;28;20040;-56
2022/11/12 04:39:22;;;;;;;85.90;30.17;;;7.70;99.90;;;;;;5070516;28;20480;-56
2022/11/12 04:47:16;;;;;;;129.70;39.35;;;7.70;99.90;;;;;;5071191;28;20033;-53
2022/11/12 04:49:42;;;;;;;119.47;39.63;;;7.80;99.90;;;;;;5067674;28;20452;-57
2022/11/12 04:52:08;;;;;;;117.75;41.30;;;;;;;;;;5071063;28;20036;-56
2022/11/12 04:54:34;;;;;;;130.32;40.40;;;;;;;;;;5066911;28;20099;-56
2022/11/12 04:57:00;;;;;;;97.70;36.72;;;;;;;;;;5068670;28;20074;-57
2022/11/12 04:59:26;;;;;;;139.63;40.67;;;;;;;;;;5048372;28;20041;-56
2022/11/12 05:01:52;;;;;;;177.52;50.38;;;;;;;;;;5068301;28;20036;-57
2022/11/12 05:04:19;;;;;;;109.65;38.30;;;;;;;;;;5070978;28;20056;-57
2022/11/12 05:06:50;;;;;;;145.55;42.67;;;7.90;99.90;;;;;;5045285;28;20478;-56
2022/11/12 05:09:17;;;;;;;224.40;59.60;;;;;;;;;;5063287;28;20037;-57
2022/11/12 05:11:42;;;;;;;186.27;49.92;;;8.10;99.90;;;;;;5056907;28;20037;-57
2022/11/12 05:14:08;;;;;;;134.23;45.45;;;8.60;99.90;;;;;;5059611;28;20510;-57
2022/11/12 05:16:34;;;;;;;162.30;48.03;;;;;;;;;;5064860;28;20036;-56
2022/11/12 05:19:00;;;;;;;138.05;42.90;;;;;;;;;;5058527;28;20482;-57
2022/11/12 05:24:11;;;;;;;271.52;61.30;;;;;;;;;;5051351;28;20036;-57
2022/11/12 05:26:36;;;;;;;151.15;46.47;;;8.30;99.90;;;;;;5053853;28;20067;-56
2022/11/12 05:29:03;;;;;;;239.45;59.97;;;;;;;;;;5060356;28;20383;-57
2022/11/12 05:31:29;;;;;;;212.25;54.42;;;8.30;99.90;;;;;;5056439;28;20479;-56
2022/11/12 05:33:55;;;;;;;186.10;49.58;;;;;;;;;;5057572;28;20136;-56
2022/11/12 05:36:20;;;;;;;165.40;49.63;;;8.40;99.90;;;;;;5056437;28;20112;-57
2022/11/12 05:38:46;;;;;;;247.00;61.42;;;8.30;99.90;;;;;;5064835;28;20127;-56
2022/11/12 05:41:12;;;;;;;218.35;55.22;;;7.90;99.90;;;;;;5062973;28;20036;-57
2022/11/12 05:43:38;;;;;;;193.55;52.70;;;8.40;99.90;;;;;;5061138;28;20033;-55
2022/11/12 05:46:04;;;;;;;162.88;47.75;;;;;;;;;;5051208;28;20040;-57
2022/11/12 05:48:30;;;;;;;200.85;52.58;;;8.50;99.90;;;;;;5055559;28;20483;-55
2022/11/12 05:50:55;;;;;;;246.02;58.22;;;8.50;99.90;;;;;;5062156;28;20036;-58
2022/11/12 05:53:21;;;;;;;246.90;60.50;;;8.40;99.90;;;;;;5045840;28;20041;-57
2022/11/12 05:55:47;;;;;;;234.73;60.20;;;;;;;;;;5068048;28;20044;-57
2022/11/12 05:58:13;;;;;;;283.90;69.47;;;;;;;;;;5056050;28;20064;-57
2022/11/12 06:00:40;;;;;;;262.10;62.75;;;8.50;99.90;;;;;;5034128;28;20045;-57
2022/11/12 06:03:10;;;;;;;204.57;52.85;;;8.00;99.90;;;;;;5042327;28;20040;-56
2022/11/12 06:05:36;;;;;;;241.23;57.70;;;8.70;99.90;;;;;;5054159;28;20029;-57
2022/11/12 06:08:04;;;;;;;254.80;58.70;;;;;;;;;;5059187;28;20024;-57
2022/11/12 06:10:33;;;;;;;238.23;56.58;;;8.50;99.90;;;;;;5067143;28;20153;-57
2022/11/12 06:12:59;;;;;;;187.02;51.15;;;8.60;99.90;;;;;;5057962;28;20033;-56
2022/11/12 06:15:25;;;;;;;227.30;54.78;;;8.80;99.90;;;;;;5056204;28;20035;-57
2022/11/12 06:17:54;;;;;;;178.35;49.25;;;;;;;;;;5060194;28;20549;-57
2022/11/12 06:20:21;;;;;;;182.77;50.75;;;8.20;99.90;;;;;;5056876;28;20144;-57
2022/11/12 06:22:48;;;;;;;237.45;57.30;;;;;;;;;;5057329;28;20040;-57
2022/11/12 06:25:13;;;;;;;165.38;50.75;;;8.50;99.90;;;;;;5060377;28;20044;-57
2022/11/12 06:27:40;;;;;;;305.08;67.97;;;;;;;;;;5062772;28;20028;-57
2022/11/12 06:30:07;;;;;;;290.60;68.85;;;8.50;99.90;;;;;;5045043;28;20032;-57
2022/11/12 06:32:32;;;;;;;225.93;57.70;;;8.90;99.90;;;;;;5062684;28;20040;-57
2022/11/12 06:34:58;;;;;;;204.80;53.42;;;8.70;99.90;;;;;;5064357;28;20116;-57
2022/11/12 06:37:24;;;;;;;191.05;52.33;;;;;;;;;;5058314;28;20398;-55
2022/11/12 06:39:50;;;;;;;254.75;61.85;;;8.40;99.90;;;;;;5063371;28;20387;-57
2022/11/12 06:42:16;;;;;;;243.65;65.05;;;;;;;;;;5056891;28;20048;-56
2022/11/12 06:44:42;;;;;;;267.88;64.00;;;8.50;99.90;;;;;;5048968;28;20128;-56
2022/11/12 06:47:09;;;;;;;226.43;55.17;;;;;;;;;;5066690;28;20464;-57
2022/11/12 06:49:35;;;;;;;231.00;59.42;;;8.60;99.90;;;;;;5047221;28;20032;-56
2022/11/12 06:52:01;;;;;;;293.02;68.95;;;;;;;;;;5069757;28;20040;-57
2022/11/12 06:54:26;;;;;;;395.58;82.90;;;8.50;99.90;;;;;;5062956;28;20450;-57
2022/11/12 06:56:52;;;;;;;275.83;61.30;;;;;;;;;;5118410;22;20132;-56
2022/11/12 06:59:18;;;;;;;284.10;68.22;;;8.40;99.90;;;;;;5060480;28;20032;-55
2022/11/12 07:01:44;;;;;;;326.13;70.75;;;;;;;;;;5041578;28;20045;-56
2022/11/12 07:04:10;;;;;;;190.32;52.38;;;;;;;;;;5045158;28;20037;-57
2022/11/12 07:06:36;;;;;;;361.50;82.45;;;;;;;;;;5052391;28;20086;-56
2022/11/12 07:09:03;;;;;;;329.95;77.05;;;8.70;99.90;;;;;;5056626;28;20063;-55
2022/11/12 07:11:28;;;;;;;190.05;53.17;;;8.30;99.90;;;;;;5053867;28;20039;-53
2022/11/12 07:13:55;;;;;;;308.42;73.82;;;;;;;;;;5055992;28;20044;-56
2022/11/12 07:16:21;;;;;;;457.42;97.70;;;;;;;;;;5016086;28;20395;-53
2022/11/12 07:18:47;;;;;;;235.45;57.90;;;;;;;;;;5042508;28;20451;-54
2022/11/12 07:21:15;;;;;;;172.93;52.85;;;8.50;99.90;;;;;;5048005;28;20041;-55
2022/11/12 07:23:41;;;;;;;208.73;56.33;;;;;;;;;;5048360;28;20045;-55
2022/11/12 07:26:12;;;;;;;328.73;73.00;;;;;;;;;;5049946;28;20116;-53
2022/11/12 07:28:37;;;;;;;259.13;59.15;;;8.20;99.90;;;;;;5061193;28;20086;-55
2022/11/12 07:31:06;;;;;;;226.63;54.88;;;7.70;99.90;;;;;;5059109;28;20475;-53
2022/11/12 07:33:32;;;;;;;301.25;68.10;;;;;;;;;;5051872;28;20072;-53
2022/11/12 07:35:58;;;;;;;211.98;55.92;;;;;;;;;;5042524;28;20475;-55
2022/11/12 07:38:24;;;;;;;206.15;55.83;;;;;;;;;;5039211;28;20076;-54
2022/11/12 07:40:51;;;;;;;272.73;64.18;;;;;;;;;;5045233;28;20033;-56
2022/11/12 07:43:16;;;;;;;256.67;60.40;;;;;;;;;;5052853;28;20039;-52
2022/11/12 07:45:42;;;;;;;240.57;58.60;;;8.40;99.90;;;;;;5045451;28;20037;-51
2022/11/12 07:48:08;;;;;;;182.68;51.72;;;;;;;;;;5040818;28;20508;-53
2022/11/12 07:50:37;;;;;;;221.07;54.55;;;;;;;;;;5043469;28;20059;-52
2022/11/12 07:53:03;;;;;;;146.35;45.88;;;;;;;;;;5043407;28;20044;-53
2022/11/12 07:55:29;;;;;;;140.02;45.92;;;;;;;;;;5048012;28;20032;-51
2022/11/12 07:57:58;;;;;;;135.23;43.90;;;;;;;;;;5039863;28;20033;-54
2022/11/12 08:00:24;;;;;;;295.30;69.40;;;;;;;;;;5042103;28;20124;-54
2022/11/12 08:02:50;;;;;;;242.50;60.45;;;;;;;;;;5047723;28;20119;-51
2022/11/12 08:05:16;;;;;;;181.10;49.70;;;8.10;99.90;;;;;;5046282;28;20155;-51
2022/11/12 08:07:42;;;;;;;183.13;48.55;;;;;;;;;;5061318;28;20506;-53
2022/11/12 08:10:08;;;;;;;186.80;51.15;;;;;;;;;;5059504;28;20037;-54
2022/11/12 08:12:34;;;;;;;232.68;58.72;;;;;;;;;;5051590;28;20041;-54
2022/11/12 08:15:00;;;;;;;221.68;56.35;;;;;;;;;;5051590;28;20410;-54
2022/11/12 08:17:26;;;;;;;204.10;56.28;;;;;;;;;;5051509;28;20044;-52
2022/11/12 08:19:54;;;;;;;155.95;47.45;;;;;;;;;;5033191;28;20131;-54
2022/11/12 08:22:20;;;;;;;200.82;54.35;;;;;;;;;;5053998;28;20073;-53
2022/11/12 08:24:46;;;;;;;106.15;39.63;;;;;;;;;;5051184;28;20040;-54
2022/11/12 08:27:12;;;;;;;108.78;41.63;;;;;;;;;;5036642;28;20055;-54
2022/11/12 08:29:38;;;;;;;172.40;49.72;;;8.10;99.90;;;;;;5051798;28;20494;-52
2022/11/12 08:32:07;;;;;;;183.20;50.15;;;;;;;;;;5048751;28;20045;-54
2022/11/12 08:34:34;;;;;;;211.30;71.20;;;;;;;;;;5049361;28;20037;-52
2022/11/12 08:37:00;;;;;;;202.30;56.78;;;;;;;;;;5045410;28;20048;-55
2022/11/12 08:39:26;;;;;;;150.32;45.30;;;;;;;;;;5051346;28;20064;-52
2022/11/12 08:41:53;;;;;;;158.13;48.95;;;;;;;;;;5048111;28;20154;-54
2022/11/12 08:44:19;;;;;;;133.13;44.85;;;;;;;;;;5047252;28;20036;-52
2022/11/12 08:46:44;;;;;;;158.63;54.58;;;;;;;;;;5060396;28;20406;-54
2022/11/12 08:49:10;;;;;;;160.38;49.08;;;;;;;;;;5043905;28;20029;-52
2022/11/12 08:51:36;;;;;;;140.52;46.45;;;;;;;;;;5023525;28;20037;-54
2022/11/12 08:54:02;;;;;;;146.93;46.95;;;;;;;;;;5043991;28;20037;-55
2022/11/12 08:56:28;;;;;;;92.50;37.33;;;;;;;;;;5024380;28;20329;-54
2022/11/12 08:58:55;;;;;;;120.80;46.00;;;;;;;;;;5047462;28;20386;-52
2022/11/12 09:01:20;;;;;;;150.50;49.63;;;8.10;99.90;;;;;;5041417;28;20116;-53
2022/11/12 09:03:48;;;;;;;108.75;40.08;;;;;;;;;;5043015;28;20036;-55
2022/11/12 09:06:14;;;;;;;115.75;44.13;;;;;;;;;;5044811;28;20041;-54
2022/11/12 09:08:40;;;;;;;88.88;34.92;;;;;;;;;;5045311;28;20454;-54
2022/11/12 09:11:06;;;;;;;113.05;45.25;;;;;;;;;;5047562;28;20040;-52
2022/11/12 09:13:33;;;;;;;110.28;41.63;;;;;;;;;;5038343;28;20445;-54
2022/11/12 09:16:00;;;;;;;92.22;37.67;;;;;;;;;;5044055;28;20195;-54
2022/11/12 09:18:26;;;;;;;76.43;37.08;;;;;;;;;;5045423;28;20090;-52
2022/11/12 09:20:52;;;;;;;105.65;48.90;;;;;;;;;;5041617;28;20051;-54
2022/11/12 09:23:18;;;;;;;76.63;36.85;;;;;;;;;;5044483;28;20029;-55
2022/11/12 09:25:44;;;;;;;107.95;36.63;;;;;;;;;;5026784;28;20057;-54
2022/11/12 09:28:14;;;;;;;141.25;42.85;;;;;;;;;;5041782;28;20039;-53
2022/11/12 09:30:47;;;;;;;69.55;31.42;;;;;;;;;;5021911;28;20124;-55
2022/11/12 09:33:18;;;;;;;76.22;31.75;;;;;;;;;;5044027;28;20044;-54
2022/11/12 09:35:45;;;;;;;84.50;35.90;;;8.50;99.90;;;;;;5043516;28;20040;-55
2022/11/12 09:38:13;;;;;;;86.32;34.58;;;;;;;;;;5044422;28;20041;-55
2022/11/12 09:40:56;;;;;;;95.00;35.80;;;;;;;;;;5037539;28;20575;-54
2022/11/12 09:43:34;;;;;;;152.55;43.63;;;;;;;;;;5045861;28;20029;-55
2022/11/12 09:46:02;;;;;;;135.65;40.22;;;;;;;;;;5038685;28;20030;-52
2022/11/12 09:48:48;;;;;;;67.60;28.83;;;;;;;;;;5043312;28;20414;-55
2022/11/12 09:51:29;;;;;;;104.38;39.10;;;;;;;;;;5040587;28;20129;-52
2022/11/12 09:54:01;;;;;;;134.98;45.88;;;;;;;;;;5045700;28;20079;-55
2022/11/12 09:56:28;;;;;;;93.93;32.58;;;;;;;;;;5020103;28;20041;-55
2022/11/12 09:58:55;;;;;;;122.95;35.67;;;;;;;;;;5019958;28;20135;-55
2022/11/12 10:01:21;;;;;;;139.68;36.08;;;;;;;;;;5044501;28;20083;-55
2022/11/12 10:03:54;;;;;;;82.30;30.65;;;;;;;;;;5040629;28;20037;-52
2022/11/12 10:06:24;;;;;;;115.65;34.53;;;;;;;;;;5042250;28;20064;-54
2022/11/12 10:08:53;;;;;;;75.25;28.05;;;;;;;;;;5040703;28;20036;-54
2022/11/12 10:14:22;;;;;;;84.40;32.80;;;;;;;;;;5041613;28;20037;-55
2022/11/12 10:17:00;;;;;;;77.32;29.08;;;;;;;;;;5041930;28;20045;-54
2022/11/12 10:19:26;;;;;;;98.65;36.35;;;;;;;;;;5043750;28;20386;-54
2022/11/12 10:21:52;;;;;;;118.35;37.20;;;;;;;;;;5039919;28;20044;-53
2022/11/12 10:24:20;;;;;;;89.28;32.40;;;;;;;;;;5036120;28;20037;-54
2022/11/12 10:26:47;;;;;;;190.48;46.53;;;;;;;;;;5042261;28;20079;-54
2022/11/12 10:29:34;;;;;;;125.55;39.13;;;;;;;;;;5018836;28;20037;-55
2022/11/12 10:32:01;;;;;;;134.20;42.17;;;;;;;;;;5028818;28;20044;-54
2022/11/12 10:34:30;;;;;;;87.35;33.70;;;;;;;;;;5041344;28;20080;-55
2022/11/12 10:37:04;;;;;;;113.90;38.65;;;;;;;;;;5028400;28;20037;-53
2022/11/12 10:39:30;;;;;;;;;;;;;;;;;;5043946;28;20033;-56
2022/11/12 10:42:07;;;;;;;64.70;32.45;;;;;;;;;;5047417;28;19920;-55
2022/11/12 10:44:33;;;;;;;120.80;38.38;;;;;;;;;;5042365;28;20045;-55
2022/11/12 10:47:21;;;;;;;63.40;28.70;;;;;;;;;;5041659;28;20529;-53
2022/11/12 10:50:03;;;;;;;83.65;33.10;;;;;;;;;;5042098;28;20102;-54
2022/11/12 10:52:29;;;;;;;77.40;30.80;;;;;;;;;;5040801;28;20041;-54
2022/11/12 10:55:04;;;;;;;78.25;32.00;;;;;;;;;;5042804;28;20167;-55
2022/11/12 10:57:30;;;;;;;103.07;34.05;;;;;;;;;;5044617;28;20059;-54
2022/11/12 11:00:07;;;;;;;72.88;35.92;;;;;;;;;;5043455;28;20551;-55
2022/11/12 11:02:33;;;;;;;73.30;29.77;;;;;;;;;;5043248;28;20052;-54
2022/11/12 11:04:59;;;;;;;98.30;35.03;;;;;;;;;;5040925;28;20037;-55
2022/11/12 11:07:25;;;;;;;101.03;35.42;;;;;;;;;;5040264;28;20464;-54
2022/11/12 11:09:53;;;;;;;99.20;37.28;;;;;;;;;;5030031;28;20040;-55
2022/11/12 11:12:23;;;;;;;99.43;38.08;;;;;;;;;;5039605;28;20128;-53
2022/11/12 11:15:06;;;;;;;99.88;36.88;;;8.60;99.90;;;;;;5049439;28;20032;-55
2022/11/12 11:17:32;;;;;;;94.80;36.00;;;;;;;;;;5035683;28;20467;-55
2022/11/12 11:19:58;;;;;;;83.70;34.65;;;;;;;;;;5035613;28;20091;-54
2022/11/12 11:22:40;;;;;;;82.63;36.03;;;;;;;;;;5035781;28;20380;-55
2022/11/12 11:25:19;;;;;;;87.03;35.72;;;;;;;;;;5014908;28;20418;-55
2022/11/12 11:27:48;;;;;;;79.47;34.35;;;;;;;;;;5038994;28;20124;-55
2022/11/12 11:30:17;;;;;;;101.70;38.72;;;;;;;;;;5051608;28;20489;-53
2022/11/12 11:32:43;;;;;;;85.00;36.53;;;;;;;;;;5028344;28;20433;-54
2022/11/12 11:35:21;;;;;;;88.97;35.80;;;;;;;;;;5057781;28;20099;-55
2022/11/12 11:38:01;;;;;;;102.93;40.95;;;;;;;;;;5059036;28;20041;-54
2022/11/12 11:40:35;;;;;;;91.32;37.67;;;8.80;99.90;;;;;;5051108;28;20064;-54
2022/11/12 11:43:24;;;;;;;90.90;36.40;;;8.70;99.90;;;;;;5043092;28;20051;-53
2022/11/12 11:46:03;;;;;;;105.85;40.80;;;;;;;;;;5050838;28;20472;-55
2022/11/12 11:48:31;;;;;;;96.32;41.58;;;8.80;99.90;;;;;;5031837;28;20065;-53
2022/11/12 11:51:01;;;;;;;89.90;36.88;;;8.80;99.90;;;;;;5054702;28;20635;-54
2022/11/12 11:53:37;;;;;;;97.75;41.35;;;;;;;;;;5043094;28;20086;-52
2022/11/12 11:56:09;;;;;;;90.30;40.55;;;9.00;99.90;;;;;;5050142;28;20045;-55
2022/11/12 11:58:35;;;;;;;87.95;42.17;;;;;;;;;;5046943;28;20043;-54
2022/11/12 12:01:04;;;;;;;84.07;39.10;;;;;;;;;;5044758;28;20048;-54
2022/11/12 12:03:39;;;;;;;92.07;41.55;;;;;;;;;;5047033;28;20509;-55
2022/11/12 12:06:17;;;;;;;78.03;38.47;;;;;;;;;;5049425;28;20040;-55
2022/11/12 12:08:55;;;;;;;81.85;38.53;;;9.60;99.90;;;;;;5044860;28;20095;-54
2022/11/12 12:11:24;;;;;;;74.53;36.78;;;;;;;;;;5046106;28;20052;-54
2022/11/12 12:14:14;;;;;;;77.40;39.88;;;9.60;99.90;;;;;;5048259;28;20040;-55
2022/11/12 12:16:58;;;;;;;92.03;41.33;;;9.40;99.90;;;;;;5024971;28;20509;-55
2022/11/12 12:19:27;;;;;;;79.35;39.88;;;;;;;;;;5028861;28;20060;-54
2022/11/12 12:21:53;;;;;;;68.05;36.50;;;;;;;;;;5027294;28;20048;-54
2022/11/12 12:24:36;;;;;;;79.68;40.78;;;9.10;99.90;;;;;;5043426;28;20045;-54
2022/11/12 12:27:08;;;;;;;79.03;40.85;;;;;;;;;;5046969;28;20407;-54
2022/11/12 12:29:40;;;;;;;77.80;38.25;;;;;;;;;;5039164;28;20042;-55
2022/11/12 12:32:30;;;;;;;76.75;39.47;;;9.60;99.90;;;;;;5044393;28;20037;-55
2022/11/12 12:35:02;;;;;;;79.28;41.10;;;9.40;99.90;;;;;;5041939;28;20051;-55
2022/11/12 12:37:31;;;;;;;70.85;39.92;;;9.90;99.90;;;;;;5045808;28;20513;-53
2022/11/12 12:40:19;;;;;;;75.38;40.17;;;;;;;;;;5046949;28;20036;-55
2022/11/12 12:43:08;;;;;;;77.55;38.72;;;;;;;;;;5046149;28;20054;-55
2022/11/12 12:45:43;;;;;;;66.15;37.10;;;;;;;;;;5034677;28;20541;-55
2022/11/12 12:48:09;;;;;;;;;;;;;;;;;;5046124;28;20134;-55
2022/11/12 12:50:37;;;;;;;66.63;37.47;;;;;;;;;;5045039;28;20472;-55
2022/11/12 12:53:15;;;;;;;74.22;43.00;;;;;;;;;;5040651;28;20029;-55
2022/11/12 12:55:46;;;;;;;59.55;34.90;;;;;;;;;;5047062;28;20079;-55
2022/11/12 12:58:25;;;;;;;67.10;37.38;;;;;;;;;;5084767;22;20488;-55
2022/11/12 13:01:04;;;;;;;76.55;43.80;;;10.70;99.90;;;;;;5089855;28;20501;-58
2022/11/12 13:03:42;;;;;;;66.95;37.22;;;10.40;99.90;;;;;;5088407;28;20401;-58
2022/11/12 13:06:13;;;;;;;61.53;35.28;;;;;;;;;;5087494;28;21015;-57
2022/11/12 13:08:39;;;;;;;60.25;34.47;;;10.60;99.90;;;;;;5077114;28;20042;-58
2022/11/12 13:11:05;;;;;;;65.20;35.75;;;10.60;99.90;;;;;;5078554;28;20036;-58
2022/11/12 13:13:36;;;;;;;66.38;36.22;;;10.70;99.90;;;;;;5080330;28;20032;-57
2022/11/12 13:16:02;;;;;;;58.80;33.50;;;10.40;99.90;;;;;;5079327;28;20121;-58
2022/11/12 13:18:50;;;;;;;64.00;37.75;;;10.70;99.90;;;;;;5061729;28;20075;-57
2022/11/12 13:21:19;;;;;;;63.78;35.70;;;10.50;99.90;;;;;;5081788;28;20090;-57
2022/11/12 13:24:07;;;;;;;59.55;35.78;;;;;;;;;;5075731;28;20036;-57
2022/11/12 13:26:41;;;;;;;64.63;38.03;;;;;;;;;;5061187;28;20071;-58
2022/11/12 13:29:26;;;;;;;61.30;35.78;;;;;;;;;;5075298;28;20036;-57
2022/11/12 13:32:27;;;;;;;63.17;35.45;;;10.00;99.90;;;;;;5081311;28;20147;-56
2022/11/12 13:35:20;;;;;;;57.65;35.05;;;10.30;99.90;;;;;;5069415;28;20101;-57
2022/11/12 13:38:14;;;;;;;64.75;35.28;;;9.90;99.90;;;;;;5054183;28;20057;-58
2022/11/12 13:40:50;;;;;;;64.05;37.20;;;10.80;99.90;;;;;;5079797;28;20040;-58
2022/11/12 13:43:35;;;;;;;64.30;36.60;;;;;;;;;;5076771;28;20032;-57
2022/11/12 13:46:13;;;;;;;55.63;34.35;;;;;;;;;;5055261;28;20189;-58
2022/11/12 13:48:46;;;;;;;58.13;33.50;;;10.70;99.90;;;;;;5060843;28;20060;-57
2022/11/12 13:51:19;;;;;;;59.53;37.03;;;;;;;;;;5074861;28;20033;-54
2022/11/12 13:53:46;;;;;;;57.00;33.38;;;10.70;99.90;;;;;;5069167;28;20051;-56
2022/11/12 13:56:32;;;;;;;60.45;35.60;;;10.60;99.90;;;;;;5067306;28;20463;-56
2022/11/12 13:59:28;;;;;;;59.15;35.13;;;11.10;99.90;;;;;;5061852;28;20531;-56
2022/11/12 14:01:55;;;;;;;56.00;33.15;;;;;;;;;;5037854;28;20045;-56
2022/11/12 14:04:22;;;;;;;53.83;31.23;;;10.80;99.90;;;;;;5039248;28;20102;-55
2022/11/12 14:06:54;;;;;;;55.72;33.25;;;10.60;99.90;;;;;;5060664;28;20051;-56
2022/11/12 14:09:38;;;;;;;53.30;32.85;;;10.70;99.90;;;;;;5061593;28;20040;-55
2022/11/12 14:12:21;;;;;;;51.28;31.60;;;10.80;99.90;;;;;;5076177;28;20039;-54